sensor_id;sensor_type;location;lat;lon;timestamp;P1;durP1;ratioP1;P2;durP2;ratioP2
70052;SDS011;57398;52.032;4.376;2023-01-01T00:02:04;55.70;;;32.70;;
70052;SDS011;57398;52.032;4.376;2023-01-01T00:04:52;44.90;;;26.75;;
70052;SDS011;57398;52.032;4.376;2023-01-01T00:07:42;45.53;;;24.63;;
70052;SDS011;57398;52.032;4.376;2023-01-01T00:10:30;38.65;;;21.45;;
70052;SDS011;57398;52.032;4.376;2023-01-01T00:13:18;35.38;;;19.33;;
70052;SDS011;57398;52.032;4.376;2023-01-01T00:16:07;35.42;;;18.60;;
70052;SDS011;57398;52.032;4.376;2023-01-01T00:18:56;28.70;;;14.98;;
70052;SDS011;57398;52.032;4.376;2023-01-01T00:21:44;28.90;;;14.03;;
70052;SDS011;57398;52.032;4.376;2023-01-01T00:24:34;26.63;;;11.95;;
70052;SDS011;57398;52.032;4.376;2023-01-01T00:27:22;27.60;;;11.52;;
70052;SDS011;57398;52.032;4.376;2023-01-01T00:30:10;20.95;;;10.23;;
70052;SDS011;57398;52.032;4.376;2023-01-01T00:32:59;18.95;;;9.57;;
70052;SDS011;57398;52.032;4.376;2023-01-01T00:35:47;20.00;;;9.00;;
70052;SDS011;57398;52.032;4.376;2023-01-01T00:38:35;20.13;;;8.95;;
70052;SDS011;57398;52.032;4.376;2023-01-01T00:41:25;20.83;;;8.27;;
70052;SDS011;57398;52.032;4.376;2023-01-01T00:44:13;18.27;;;8.00;;
70052;SDS011;57398;52.032;4.376;2023-01-01T00:47:01;19.27;;;7.57;;
70052;SDS011;57398;52.032;4.376;2023-01-01T00:49:49;16.07;;;7.07;;
70052;SDS011;57398;52.032;4.376;2023-01-01T00:52:37;18.40;;;6.55;;
70052;SDS011;57398;52.032;4.376;2023-01-01T00:55:25;13.88;;;6.60;;
70052;SDS011;57398;52.032;4.376;2023-01-01T00:58:16;13.05;;;5.32;;
70052;SDS011;57398;52.032;4.376;2023-01-01T01:01:05;13.18;;;5.15;;
70052;SDS011;57398;52.032;4.376;2023-01-01T01:03:54;13.17;;;5.60;;
70052;SDS011;57398;52.032;4.376;2023-01-01T01:06:42;10.48;;;4.35;;
70052;SDS011;57398;52.032;4.376;2023-01-01T01:09:31;16.33;;;5.93;;
70052;SDS011;57398;52.032;4.376;2023-01-01T01:12:19;13.23;;;5.18;;
70052;SDS011;57398;52.032;4.376;2023-01-01T01:15:09;11.48;;;4.57;;
70052;SDS011;57398;52.032;4.376;2023-01-01T01:17:57;14.90;;;5.00;;
70052;SDS011;57398;52.032;4.376;2023-01-01T01:20:48;12.50;;;4.32;;
70052;SDS011;57398;52.032;4.376;2023-01-01T01:23:37;13.15;;;3.97;;
70052;SDS011;57398;52.032;4.376;2023-01-01T01:26:26;11.88;;;3.88;;
70052;SDS011;57398;52.032;4.376;2023-01-01T01:29:15;10.85;;;3.90;;
70052;SDS011;57398;52.032;4.376;2023-01-01T01:32:04;11.63;;;3.80;;
70052;SDS011;57398;52.032;4.376;2023-01-01T01:34:53;9.52;;;3.60;;
70052;SDS011;57398;52.032;4.376;2023-01-01T01:37:41;11.13;;;3.70;;
70052;SDS011;57398;52.032;4.376;2023-01-01T01:40:29;10.27;;;3.47;;
70052;SDS011;57398;52.032;4.376;2023-01-01T01:43:19;10.02;;;3.30;;
70052;SDS011;57398;52.032;4.376;2023-01-01T01:46:11;8.97;;;3.43;;
70052;SDS011;57398;52.032;4.376;2023-01-01T01:49:03;7.97;;;3.20;;
70052;SDS011;57398;52.032;4.376;2023-01-01T01:51:57;9.55;;;2.88;;
70052;SDS011;57398;52.032;4.376;2023-01-01T01:54:49;9.68;;;2.70;;
70052;SDS011;57398;52.032;4.376;2023-01-01T01:57:37;9.18;;;2.50;;
70052;SDS011;57398;52.032;4.376;2023-01-01T02:00:27;10.27;;;2.57;;
70052;SDS011;57398;52.032;4.376;2023-01-01T02:03:16;8.65;;;2.40;;
70052;SDS011;57398;52.032;4.376;2023-01-01T02:06:08;7.78;;;2.38;;
70052;SDS011;57398;52.032;4.376;2023-01-01T02:08:58;9.38;;;2.50;;
70052;SDS011;57398;52.032;4.376;2023-01-01T02:11:48;10.93;;;2.13;;
70052;SDS011;57398;52.032;4.376;2023-01-01T02:14:36;8.50;;;2.90;;
70052;SDS011;57398;52.032;4.376;2023-01-01T02:17:26;8.32;;;2.30;;
70052;SDS011;57398;52.032;4.376;2023-01-01T02:20:28;9.18;;;2.70;;
70052;SDS011;57398;52.032;4.376;2023-01-01T02:23:39;7.15;;;2.40;;
70052;SDS011;57398;52.032;4.376;2023-01-01T02:26:41;7.70;;;2.42;;
70052;SDS011;57398;52.032;4.376;2023-01-01T02:29:40;10.87;;;2.27;;
70052;SDS011;57398;52.032;4.376;2023-01-01T02:32:33;7.50;;;2.22;;
70052;SDS011;57398;52.032;4.376;2023-01-01T02:35:28;7.65;;;1.90;;
70052;SDS011;57398;52.032;4.376;2023-01-01T02:38:25;11.65;;;1.88;;
70052;SDS011;57398;52.032;4.376;2023-01-01T02:41:18;7.20;;;2.08;;
70052;SDS011;57398;52.032;4.376;2023-01-01T02:44:10;6.40;;;1.87;;
70052;SDS011;57398;52.032;4.376;2023-01-01T02:47:10;8.40;;;2.30;;
70052;SDS011;57398;52.032;4.376;2023-01-01T02:50:02;6.20;;;2.00;;
70052;SDS011;57398;52.032;4.376;2023-01-01T02:52:59;5.55;;;1.77;;
70052;SDS011;57398;52.032;4.376;2023-01-01T02:56:07;8.38;;;1.90;;
70052;SDS011;57398;52.032;4.376;2023-01-01T02:59:12;5.90;;;1.60;;
70052;SDS011;57398;52.032;4.376;2023-01-01T03:02:28;8.75;;;2.38;;
70052;SDS011;57398;52.032;4.376;2023-01-01T03:05:26;5.55;;;1.80;;
70052;SDS011;57398;52.032;4.376;2023-01-01T03:08:19;6.22;;;1.88;;
70052;SDS011;57398;52.032;4.376;2023-01-01T03:11:15;7.60;;;2.38;;
70052;SDS011;57398;52.032;4.376;2023-01-01T03:14:07;7.23;;;2.07;;
70052;SDS011;57398;52.032;4.376;2023-01-01T03:17:03;9.13;;;2.03;;
70052;SDS011;57398;52.032;4.376;2023-01-01T03:19:57;6.82;;;1.75;;
70052;SDS011;57398;52.032;4.376;2023-01-01T03:22:49;7.40;;;1.80;;
70052;SDS011;57398;52.032;4.376;2023-01-01T03:25:40;7.80;;;2.25;;
70052;SDS011;57398;52.032;4.376;2023-01-01T03:28:33;8.00;;;1.60;;
70052;SDS011;57398;52.032;4.376;2023-01-01T03:31:25;9.52;;;1.92;;
70052;SDS011;57398;52.032;4.376;2023-01-01T03:34:16;7.22;;;1.48;;
70052;SDS011;57398;52.032;4.376;2023-01-01T03:37:10;6.25;;;1.20;;
70052;SDS011;57398;52.032;4.376;2023-01-01T03:40:03;9.23;;;1.55;;
70052;SDS011;57398;52.032;4.376;2023-01-01T03:42:54;6.57;;;1.40;;
70052;SDS011;57398;52.032;4.376;2023-01-01T03:45:46;7.35;;;1.35;;
70052;SDS011;57398;52.032;4.376;2023-01-01T03:48:37;4.55;;;1.00;;
70052;SDS011;57398;52.032;4.376;2023-01-01T03:54:57;6.75;;;1.23;;
70052;SDS011;57398;52.032;4.376;2023-01-01T03:57:54;8.83;;;1.00;;
70052;SDS011;57398;52.032;4.376;2023-01-01T04:00:48;4.97;;;0.70;;
70052;SDS011;57398;52.032;4.376;2023-01-01T04:03:40;6.07;;;0.95;;
70052;SDS011;57398;52.032;4.376;2023-01-01T04:06:30;4.45;;;0.82;;
70052;SDS011;57398;52.032;4.376;2023-01-01T04:09:20;5.22;;;1.10;;
70052;SDS011;57398;52.032;4.376;2023-01-01T04:12:13;5.93;;;0.87;;
70052;SDS011;57398;52.032;4.376;2023-01-01T04:15:07;6.15;;;1.00;;
70052;SDS011;57398;52.032;4.376;2023-01-01T04:17:56;6.60;;;1.30;;
70052;SDS011;57398;52.032;4.376;2023-01-01T04:20:45;3.38;;;0.70;;
70052;SDS011;57398;52.032;4.376;2023-01-01T04:23:33;5.93;;;1.33;;
70052;SDS011;57398;52.032;4.376;2023-01-01T04:26:22;7.23;;;1.40;;
70052;SDS011;57398;52.032;4.376;2023-01-01T04:29:11;7.57;;;1.25;;
70052;SDS011;57398;52.032;4.376;2023-01-01T04:31:59;6.57;;;1.58;;
70052;SDS011;57398;52.032;4.376;2023-01-01T04:34:47;7.38;;;1.40;;
70052;SDS011;57398;52.032;4.376;2023-01-01T04:37:35;7.43;;;1.40;;
70052;SDS011;57398;52.032;4.376;2023-01-01T04:40:23;7.60;;;1.47;;
70052;SDS011;57398;52.032;4.376;2023-01-01T04:43:11;6.82;;;1.50;;
70052;SDS011;57398;52.032;4.376;2023-01-01T04:46:01;6.43;;;1.00;;
70052;SDS011;57398;52.032;4.376;2023-01-01T04:48:50;10.27;;;1.20;;
70052;SDS011;57398;52.032;4.376;2023-01-01T04:51:38;8.10;;;1.38;;
70052;SDS011;57398;52.032;4.376;2023-01-01T04:54:26;7.27;;;1.30;;
70052;SDS011;57398;52.032;4.376;2023-01-01T04:57:15;9.43;;;1.40;;
70052;SDS011;57398;52.032;4.376;2023-01-01T05:00:03;7.82;;;1.50;;
70052;SDS011;57398;52.032;4.376;2023-01-01T05:02:53;9.38;;;1.35;;
70052;SDS011;57398;52.032;4.376;2023-01-01T05:05:42;7.50;;;1.35;;
70052;SDS011;57398;52.032;4.376;2023-01-01T05:08:37;7.03;;;1.60;;
70052;SDS011;57398;52.032;4.376;2023-01-01T05:11:27;5.28;;;1.42;;
70052;SDS011;57398;52.032;4.376;2023-01-01T05:14:16;8.45;;;1.63;;
70052;SDS011;57398;52.032;4.376;2023-01-01T05:17:04;8.65;;;1.67;;
70052;SDS011;57398;52.032;4.376;2023-01-01T05:19:54;10.15;;;1.45;;
70052;SDS011;57398;52.032;4.376;2023-01-01T05:22:42;6.23;;;1.13;;
70052;SDS011;57398;52.032;4.376;2023-01-01T05:25:32;11.30;;;1.67;;
70052;SDS011;57398;52.032;4.376;2023-01-01T05:28:20;9.55;;;1.65;;
70052;SDS011;57398;52.032;4.376;2023-01-01T05:31:10;9.05;;;1.63;;
70052;SDS011;57398;52.032;4.376;2023-01-01T05:34:01;8.05;;;1.42;;
70052;SDS011;57398;52.032;4.376;2023-01-01T05:36:50;9.10;;;1.40;;
70052;SDS011;57398;52.032;4.376;2023-01-01T05:39:38;7.78;;;1.23;;
70052;SDS011;57398;52.032;4.376;2023-01-01T05:42:26;8.52;;;1.70;;
70052;SDS011;57398;52.032;4.376;2023-01-01T05:45:14;8.75;;;1.15;;
70052;SDS011;57398;52.032;4.376;2023-01-01T05:48:03;9.48;;;2.08;;
70052;SDS011;57398;52.032;4.376;2023-01-01T05:50:52;10.03;;;1.50;;
70052;SDS011;57398;52.032;4.376;2023-01-01T05:53:42;6.88;;;1.25;;
70052;SDS011;57398;52.032;4.376;2023-01-01T05:56:31;8.05;;;1.45;;
70052;SDS011;57398;52.032;4.376;2023-01-01T05:59:19;11.93;;;2.13;;
70052;SDS011;57398;52.032;4.376;2023-01-01T06:02:07;8.15;;;1.60;;
70052;SDS011;57398;52.032;4.376;2023-01-01T06:04:55;14.80;;;1.60;;
70052;SDS011;57398;52.032;4.376;2023-01-01T06:07:43;5.97;;;1.40;;
70052;SDS011;57398;52.032;4.376;2023-01-01T06:10:35;10.32;;;1.30;;
70052;SDS011;57398;52.032;4.376;2023-01-01T06:13:23;9.82;;;1.38;;
70052;SDS011;57398;52.032;4.376;2023-01-01T06:16:11;6.55;;;1.98;;
70052;SDS011;57398;52.032;4.376;2023-01-01T06:19:00;9.67;;;1.83;;
70052;SDS011;57398;52.032;4.376;2023-01-01T06:21:48;11.63;;;1.55;;
70052;SDS011;57398;52.032;4.376;2023-01-01T06:24:36;10.40;;;1.67;;
70052;SDS011;57398;52.032;4.376;2023-01-01T06:27:26;11.57;;;1.80;;
70052;SDS011;57398;52.032;4.376;2023-01-01T06:30:14;14.10;;;1.42;;
70052;SDS011;57398;52.032;4.376;2023-01-01T06:33:03;9.87;;;1.60;;
70052;SDS011;57398;52.032;4.376;2023-01-01T06:35:52;13.50;;;1.42;;
70052;SDS011;57398;52.032;4.376;2023-01-01T06:38:41;11.75;;;1.90;;
70052;SDS011;57398;52.032;4.376;2023-01-01T06:41:31;8.10;;;1.35;;
70052;SDS011;57398;52.032;4.376;2023-01-01T06:44:21;6.32;;;1.10;;
70052;SDS011;57398;52.032;4.376;2023-01-01T06:47:09;7.87;;;1.27;;
70052;SDS011;57398;52.032;4.376;2023-01-01T06:49:57;7.88;;;1.35;;
70052;SDS011;57398;52.032;4.376;2023-01-01T06:52:45;9.60;;;1.33;;
70052;SDS011;57398;52.032;4.376;2023-01-01T06:55:33;8.27;;;1.42;;
70052;SDS011;57398;52.032;4.376;2023-01-01T06:58:23;7.93;;;1.50;;
70052;SDS011;57398;52.032;4.376;2023-01-01T07:01:13;10.20;;;1.13;;
70052;SDS011;57398;52.032;4.376;2023-01-01T07:04:04;8.68;;;1.52;;
70052;SDS011;57398;52.032;4.376;2023-01-01T07:06:54;10.02;;;1.17;;
70052;SDS011;57398;52.032;4.376;2023-01-01T07:09:42;9.35;;;1.35;;
70052;SDS011;57398;52.032;4.376;2023-01-01T07:12:30;7.18;;;1.30;;
70052;SDS011;57398;52.032;4.376;2023-01-01T07:15:18;6.80;;;1.30;;
70052;SDS011;57398;52.032;4.376;2023-01-01T07:18:07;6.43;;;1.40;;
70052;SDS011;57398;52.032;4.376;2023-01-01T07:20:56;8.73;;;1.70;;
70052;SDS011;57398;52.032;4.376;2023-01-01T07:23:46;10.02;;;1.98;;
70052;SDS011;57398;52.032;4.376;2023-01-01T07:26:34;11.52;;;1.70;;
70052;SDS011;57398;52.032;4.376;2023-01-01T07:29:22;10.63;;;1.40;;
70052;SDS011;57398;52.032;4.376;2023-01-01T07:32:11;6.88;;;1.45;;
70052;SDS011;57398;52.032;4.376;2023-01-01T07:35:01;10.15;;;1.52;;
70052;SDS011;57398;52.032;4.376;2023-01-01T07:37:49;9.57;;;1.23;;
70052;SDS011;57398;52.032;4.376;2023-01-01T07:40:37;14.55;;;1.83;;
70052;SDS011;57398;52.032;4.376;2023-01-01T07:43:25;7.47;;;1.20;;
70052;SDS011;57398;52.032;4.376;2023-01-01T07:46:13;8.98;;;1.30;;
70052;SDS011;57398;52.032;4.376;2023-01-01T07:49:04;9.65;;;1.60;;
70052;SDS011;57398;52.032;4.376;2023-01-01T07:51:53;4.93;;;1.30;;
70052;SDS011;57398;52.032;4.376;2023-01-01T07:54:41;6.30;;;1.45;;
70052;SDS011;57398;52.032;4.376;2023-01-01T07:57:30;8.60;;;1.50;;
70052;SDS011;57398;52.032;4.376;2023-01-01T08:00:18;9.13;;;1.30;;
70052;SDS011;57398;52.032;4.376;2023-01-01T08:03:08;8.60;;;1.27;;
70052;SDS011;57398;52.032;4.376;2023-01-01T08:05:56;9.52;;;1.67;;
70052;SDS011;57398;52.032;4.376;2023-01-01T08:08:45;7.50;;;1.30;;
70052;SDS011;57398;52.032;4.376;2023-01-01T08:11:33;7.20;;;1.47;;
70052;SDS011;57398;52.032;4.376;2023-01-01T08:14:22;9.55;;;1.40;;
70052;SDS011;57398;52.032;4.376;2023-01-01T08:17:10;8.40;;;1.38;;
70052;SDS011;57398;52.032;4.376;2023-01-01T08:19:58;8.10;;;1.98;;
70052;SDS011;57398;52.032;4.376;2023-01-01T08:22:46;8.50;;;1.88;;
70052;SDS011;57398;52.032;4.376;2023-01-01T08:25:35;5.97;;;1.27;;
70052;SDS011;57398;52.032;4.376;2023-01-01T08:28:23;12.15;;;1.85;;
70052;SDS011;57398;52.032;4.376;2023-01-01T08:31:11;6.65;;;1.25;;
70052;SDS011;57398;52.032;4.376;2023-01-01T08:33:59;7.45;;;1.35;;
70052;SDS011;57398;52.032;4.376;2023-01-01T08:36:47;8.48;;;1.23;;
70052;SDS011;57398;52.032;4.376;2023-01-01T08:39:35;6.30;;;1.27;;
70052;SDS011;57398;52.032;4.376;2023-01-01T08:42:25;9.90;;;1.40;;
70052;SDS011;57398;52.032;4.376;2023-01-01T08:45:13;6.68;;;1.50;;
70052;SDS011;57398;52.032;4.376;2023-01-01T08:48:01;7.47;;;1.05;;
70052;SDS011;57398;52.032;4.376;2023-01-01T08:50:51;6.90;;;1.20;;
70052;SDS011;57398;52.032;4.376;2023-01-01T08:53:39;6.27;;;0.93;;
70052;SDS011;57398;52.032;4.376;2023-01-01T08:56:34;9.05;;;1.20;;
70052;SDS011;57398;52.032;4.376;2023-01-01T08:59:24;8.95;;;1.30;;
70052;SDS011;57398;52.032;4.376;2023-01-01T09:02:12;6.43;;;1.20;;
70052;SDS011;57398;52.032;4.376;2023-01-01T09:05:01;7.80;;;1.15;;
70052;SDS011;57398;52.032;4.376;2023-01-01T09:07:49;7.80;;;1.07;;
70052;SDS011;57398;52.032;4.376;2023-01-01T09:10:37;7.07;;;1.17;;
70052;SDS011;57398;52.032;4.376;2023-01-01T09:13:25;10.32;;;1.60;;
70052;SDS011;57398;52.032;4.376;2023-01-01T09:16:14;9.90;;;1.85;;
70052;SDS011;57398;52.032;4.376;2023-01-01T09:19:03;8.85;;;1.10;;
70052;SDS011;57398;52.032;4.376;2023-01-01T09:21:51;5.93;;;1.23;;
70052;SDS011;57398;52.032;4.376;2023-01-01T09:24:39;6.50;;;0.93;;
70052;SDS011;57398;52.032;4.376;2023-01-01T09:27:27;11.52;;;1.25;;
70052;SDS011;57398;52.032;4.376;2023-01-01T09:30:15;7.20;;;1.13;;
70052;SDS011;57398;52.032;4.376;2023-01-01T09:33:05;6.78;;;0.95;;
70052;SDS011;57398;52.032;4.376;2023-01-01T09:35:53;10.27;;;1.17;;
70052;SDS011;57398;52.032;4.376;2023-01-01T09:38:41;7.13;;;1.50;;
70052;SDS011;57398;52.032;4.376;2023-01-01T09:41:33;7.40;;;0.95;;
70052;SDS011;57398;52.032;4.376;2023-01-01T09:44:42;6.32;;;1.00;;
70052;SDS011;57398;52.032;4.376;2023-01-01T09:47:40;6.55;;;0.90;;
70052;SDS011;57398;52.032;4.376;2023-01-01T09:50:33;7.63;;;1.03;;
70052;SDS011;57398;52.032;4.376;2023-01-01T09:53:26;7.57;;;1.30;;
70052;SDS011;57398;52.032;4.376;2023-01-01T09:56:20;6.55;;;1.20;;
70052;SDS011;57398;52.032;4.376;2023-01-01T09:59:12;7.88;;;1.40;;
70052;SDS011;57398;52.032;4.376;2023-01-01T10:02:02;5.72;;;1.05;;
70052;SDS011;57398;52.032;4.376;2023-01-01T10:05:10;4.20;;;0.80;;
70052;SDS011;57398;52.032;4.376;2023-01-01T10:08:19;5.72;;;1.10;;
70052;SDS011;57398;52.032;4.376;2023-01-01T10:11:18;6.43;;;1.13;;
70052;SDS011;57398;52.032;4.376;2023-01-01T10:14:14;9.25;;;1.58;;
70052;SDS011;57398;52.032;4.376;2023-01-01T10:17:09;6.03;;;1.40;;
70052;SDS011;57398;52.032;4.376;2023-01-01T10:20:02;5.83;;;1.17;;
70052;SDS011;57398;52.032;4.376;2023-01-01T10:22:58;6.45;;;1.10;;
70052;SDS011;57398;52.032;4.376;2023-01-01T10:25:51;4.53;;;1.17;;
70052;SDS011;57398;52.032;4.376;2023-01-01T10:28:42;5.18;;;1.08;;
70052;SDS011;57398;52.032;4.376;2023-01-01T10:31:37;7.72;;;1.27;;
70052;SDS011;57398;52.032;4.376;2023-01-01T10:34:28;7.83;;;1.63;;
70052;SDS011;57398;52.032;4.376;2023-01-01T10:37:17;6.55;;;1.58;;
70052;SDS011;57398;52.032;4.376;2023-01-01T10:40:14;6.35;;;1.15;;
70052;SDS011;57398;52.032;4.376;2023-01-01T10:43:08;7.10;;;1.15;;
70052;SDS011;57398;52.032;4.376;2023-01-01T10:45:59;8.00;;;1.52;;
70052;SDS011;57398;52.032;4.376;2023-01-01T10:49:01;6.30;;;1.50;;
70052;SDS011;57398;52.032;4.376;2023-01-01T10:51:51;6.43;;;1.10;;
70052;SDS011;57398;52.032;4.376;2023-01-01T10:54:41;9.70;;;1.30;;
70052;SDS011;57398;52.032;4.376;2023-01-01T10:57:31;5.93;;;1.40;;
70052;SDS011;57398;52.032;4.376;2023-01-01T11:00:23;7.05;;;1.50;;
70052;SDS011;57398;52.032;4.376;2023-01-01T11:03:15;7.23;;;0.97;;
70052;SDS011;57398;52.032;4.376;2023-01-01T11:06:09;7.35;;;1.20;;
70052;SDS011;57398;52.032;4.376;2023-01-01T11:09:19;5.95;;;1.50;;
70052;SDS011;57398;52.032;4.376;2023-01-01T11:12:15;11.18;;;1.33;;
70052;SDS011;57398;52.032;4.376;2023-01-01T11:15:32;8.18;;;1.20;;
70052;SDS011;57398;52.032;4.376;2023-01-01T11:18:25;6.63;;;1.03;;
70052;SDS011;57398;52.032;4.376;2023-01-01T11:21:21;6.70;;;1.48;;
70052;SDS011;57398;52.032;4.376;2023-01-01T11:24:17;8.57;;;1.42;;
70052;SDS011;57398;52.032;4.376;2023-01-01T11:27:11;6.32;;;1.38;;
70052;SDS011;57398;52.032;4.376;2023-01-01T11:30:17;8.05;;;1.55;;
70052;SDS011;57398;52.032;4.376;2023-01-01T11:33:14;5.87;;;1.33;;
70052;SDS011;57398;52.032;4.376;2023-01-01T11:36:04;7.35;;;1.70;;
70052;SDS011;57398;52.032;4.376;2023-01-01T11:39:03;8.02;;;1.70;;
70052;SDS011;57398;52.032;4.376;2023-01-01T11:41:54;7.18;;;1.58;;
70052;SDS011;57398;52.032;4.376;2023-01-01T11:44:44;11.48;;;1.77;;
70052;SDS011;57398;52.032;4.376;2023-01-01T11:47:35;5.77;;;1.50;;
70052;SDS011;57398;52.032;4.376;2023-01-01T11:50:28;9.05;;;2.17;;
70052;SDS011;57398;52.032;4.376;2023-01-01T11:53:25;6.70;;;1.45;;
70052;SDS011;57398;52.032;4.376;2023-01-01T11:56:16;9.23;;;1.98;;
70052;SDS011;57398;52.032;4.376;2023-01-01T11:59:10;7.72;;;1.70;;
70052;SDS011;57398;52.032;4.376;2023-01-01T12:02:02;6.60;;;1.47;;
70052;SDS011;57398;52.032;4.376;2023-01-01T12:04:55;9.10;;;1.55;;
70052;SDS011;57398;52.032;4.376;2023-01-01T12:07:49;7.47;;;1.20;;
70052;SDS011;57398;52.032;4.376;2023-01-01T12:10:44;7.38;;;1.30;;
70052;SDS011;57398;52.032;4.376;2023-01-01T12:13:36;8.32;;;1.52;;
70052;SDS011;57398;52.032;4.376;2023-01-01T12:16:36;9.07;;;1.50;;
70052;SDS011;57398;52.032;4.376;2023-01-01T12:19:32;9.15;;;1.65;;
70052;SDS011;57398;52.032;4.376;2023-01-01T12:22:27;11.65;;;2.20;;
70052;SDS011;57398;52.032;4.376;2023-01-01T12:25:18;9.50;;;1.60;;
70052;SDS011;57398;52.032;4.376;2023-01-01T12:28:14;8.50;;;1.83;;
70052;SDS011;57398;52.032;4.376;2023-01-01T12:31:16;9.70;;;1.70;;
70052;SDS011;57398;52.032;4.376;2023-01-01T12:34:09;10.23;;;1.08;;
70052;SDS011;57398;52.032;4.376;2023-01-01T12:37:04;7.88;;;1.42;;
70052;SDS011;57398;52.032;4.376;2023-01-01T12:40:23;7.40;;;1.50;;
70052;SDS011;57398;52.032;4.376;2023-01-01T12:43:18;7.35;;;1.60;;
70052;SDS011;57398;52.032;4.376;2023-01-01T12:46:19;5.77;;;1.80;;
70052;SDS011;57398;52.032;4.376;2023-01-01T12:49:23;9.10;;;2.33;;
70052;SDS011;57398;52.032;4.376;2023-01-01T12:52:23;11.05;;;1.30;;
70052;SDS011;57398;52.032;4.376;2023-01-01T12:55:28;11.30;;;2.03;;
70052;SDS011;57398;52.032;4.376;2023-01-01T12:58:28;7.57;;;1.55;;
70052;SDS011;57398;52.032;4.376;2023-01-01T13:01:19;7.80;;;1.50;;
70052;SDS011;57398;52.032;4.376;2023-01-01T13:04:16;6.63;;;1.30;;
70052;SDS011;57398;52.032;4.376;2023-01-01T13:07:07;8.55;;;1.50;;
70052;SDS011;57398;52.032;4.376;2023-01-01T13:10:00;7.88;;;1.50;;
70052;SDS011;57398;52.032;4.376;2023-01-01T13:12:56;13.48;;;1.55;;
70052;SDS011;57398;52.032;4.376;2023-01-01T13:15:48;9.63;;;1.43;;
70052;SDS011;57398;52.032;4.376;2023-01-01T13:18:39;6.57;;;1.80;;
70052;SDS011;57398;52.032;4.376;2023-01-01T13:21:27;7.82;;;1.70;;
70052;SDS011;57398;52.032;4.376;2023-01-01T13:24:19;8.55;;;1.63;;
70052;SDS011;57398;52.032;4.376;2023-01-01T13:27:09;8.82;;;1.80;;
70052;SDS011;57398;52.032;4.376;2023-01-01T13:29:58;7.63;;;1.43;;
70052;SDS011;57398;52.032;4.376;2023-01-01T13:36:29;11.30;;;1.73;;
70052;SDS011;57398;52.032;4.376;2023-01-01T13:42:40;9.55;;;1.98;;
70052;SDS011;57398;52.032;4.376;2023-01-01T13:45:31;7.40;;;1.37;;
70052;SDS011;57398;52.032;4.376;2023-01-01T13:55:41;6.28;;;1.27;;
70052;SDS011;57398;52.032;4.376;2023-01-01T14:02:19;6.87;;;1.73;;
70052;SDS011;57398;52.032;4.376;2023-01-01T14:05:13;12.27;;;1.98;;
70052;SDS011;57398;52.032;4.376;2023-01-01T14:08:03;8.85;;;2.63;;
70052;SDS011;57398;52.032;4.376;2023-01-01T14:10:57;7.07;;;1.80;;
70052;SDS011;57398;52.032;4.376;2023-01-01T14:13:47;10.23;;;2.72;;
70052;SDS011;57398;52.032;4.376;2023-01-01T14:16:35;9.63;;;3.10;;
70052;SDS011;57398;52.032;4.376;2023-01-01T14:19:25;9.30;;;2.20;;
70052;SDS011;57398;52.032;4.376;2023-01-01T14:22:14;8.30;;;2.03;;
70052;SDS011;57398;52.032;4.376;2023-01-01T14:25:04;6.78;;;1.60;;
70052;SDS011;57398;52.032;4.376;2023-01-01T14:27:55;6.80;;;1.98;;
70052;SDS011;57398;52.032;4.376;2023-01-01T14:30:45;10.93;;;1.97;;
70052;SDS011;57398;52.032;4.376;2023-01-01T14:33:34;9.35;;;2.10;;
70052;SDS011;57398;52.032;4.376;2023-01-01T14:36:24;8.70;;;2.08;;
70052;SDS011;57398;52.032;4.376;2023-01-01T14:39:18;9.13;;;2.22;;
70052;SDS011;57398;52.032;4.376;2023-01-01T14:42:14;7.65;;;1.80;;
70052;SDS011;57398;52.032;4.376;2023-01-01T14:45:04;9.43;;;2.07;;
70052;SDS011;57398;52.032;4.376;2023-01-01T14:48:00;6.75;;;2.50;;
70052;SDS011;57398;52.032;4.376;2023-01-01T14:50:48;8.73;;;2.10;;
70052;SDS011;57398;52.032;4.376;2023-01-01T14:53:40;8.48;;;2.00;;
70052;SDS011;57398;52.032;4.376;2023-01-01T14:56:30;12.27;;;2.05;;
70052;SDS011;57398;52.032;4.376;2023-01-01T14:59:21;7.57;;;2.50;;
70052;SDS011;57398;52.032;4.376;2023-01-01T15:02:13;6.32;;;1.80;;
70052;SDS011;57398;52.032;4.376;2023-01-01T15:05:14;5.88;;;1.60;;
70052;SDS011;57398;52.032;4.376;2023-01-01T15:08:21;7.05;;;1.77;;
70052;SDS011;57398;52.032;4.376;2023-01-01T15:11:13;8.45;;;2.35;;
70052;SDS011;57398;52.032;4.376;2023-01-01T15:14:02;9.00;;;2.13;;
70052;SDS011;57398;52.032;4.376;2023-01-01T15:16:58;8.98;;;1.92;;
70052;SDS011;57398;52.032;4.376;2023-01-01T15:20:00;7.10;;;1.88;;
70052;SDS011;57398;52.032;4.376;2023-01-01T15:22:52;8.38;;;2.00;;
70052;SDS011;57398;52.032;4.376;2023-01-01T15:25:41;6.90;;;1.58;;
70052;SDS011;57398;52.032;4.376;2023-01-01T15:28:30;8.43;;;1.90;;
70052;SDS011;57398;52.032;4.376;2023-01-01T15:31:18;10.15;;;2.05;;
70052;SDS011;57398;52.032;4.376;2023-01-01T15:34:13;9.73;;;1.90;;
70052;SDS011;57398;52.032;4.376;2023-01-01T15:37:08;8.20;;;2.28;;
70052;SDS011;57398;52.032;4.376;2023-01-01T15:40:02;6.82;;;2.10;;
70052;SDS011;57398;52.032;4.376;2023-01-01T15:43:18;7.30;;;1.83;;
70052;SDS011;57398;52.032;4.376;2023-01-01T15:46:16;9.93;;;1.92;;
70052;SDS011;57398;52.032;4.376;2023-01-01T15:49:19;7.68;;;1.83;;
70052;SDS011;57398;52.032;4.376;2023-01-01T15:52:14;9.75;;;2.17;;
70052;SDS011;57398;52.032;4.376;2023-01-01T15:55:11;11.93;;;2.58;;
70052;SDS011;57398;52.032;4.376;2023-01-01T15:58:01;10.23;;;2.67;;
70052;SDS011;57398;52.032;4.376;2023-01-01T16:00:53;8.48;;;1.92;;
70052;SDS011;57398;52.032;4.376;2023-01-01T16:03:45;9.75;;;2.10;;
70052;SDS011;57398;52.032;4.376;2023-01-01T16:06:41;9.45;;;2.67;;
70052;SDS011;57398;52.032;4.376;2023-01-01T16:09:30;8.02;;;1.88;;
70052;SDS011;57398;52.032;4.376;2023-01-01T16:12:21;9.70;;;1.97;;
70052;SDS011;57398;52.032;4.376;2023-01-01T16:15:10;7.72;;;2.00;;
70052;SDS011;57398;52.032;4.376;2023-01-01T16:18:02;11.60;;;2.05;;
70052;SDS011;57398;52.032;4.376;2023-01-01T16:20:51;9.85;;;3.20;;
70052;SDS011;57398;52.032;4.376;2023-01-01T16:23:39;9.85;;;3.40;;
70052;SDS011;57398;52.032;4.376;2023-01-01T16:26:27;9.80;;;3.07;;
70052;SDS011;57398;52.032;4.376;2023-01-01T16:29:15;11.07;;;2.47;;
70052;SDS011;57398;52.032;4.376;2023-01-01T16:32:04;9.25;;;2.20;;
70052;SDS011;57398;52.032;4.376;2023-01-01T16:34:52;13.45;;;2.85;;
70052;SDS011;57398;52.032;4.376;2023-01-01T16:37:41;8.15;;;2.03;;
70052;SDS011;57398;52.032;4.376;2023-01-01T16:40:29;9.23;;;2.40;;
70052;SDS011;57398;52.032;4.376;2023-01-01T16:43:23;7.90;;;2.13;;
70052;SDS011;57398;52.032;4.376;2023-01-01T16:46:11;7.95;;;1.90;;
70052;SDS011;57398;52.032;4.376;2023-01-01T16:48:59;8.95;;;1.80;;
70052;SDS011;57398;52.032;4.376;2023-01-01T16:51:49;8.45;;;1.85;;
70052;SDS011;57398;52.032;4.376;2023-01-01T16:54:38;11.70;;;2.30;;
70052;SDS011;57398;52.032;4.376;2023-01-01T16:57:27;11.30;;;2.10;;
70052;SDS011;57398;52.032;4.376;2023-01-01T17:00:15;10.35;;;3.50;;
70052;SDS011;57398;52.032;4.376;2023-01-01T17:03:03;9.20;;;2.80;;
70052;SDS011;57398;52.032;4.376;2023-01-01T17:05:51;14.13;;;5.45;;
70052;SDS011;57398;52.032;4.376;2023-01-01T17:08:40;10.70;;;3.60;;
70052;SDS011;57398;52.032;4.376;2023-01-01T17:11:29;7.45;;;2.88;;
70052;SDS011;57398;52.032;4.376;2023-01-01T17:14:19;8.10;;;2.63;;
70052;SDS011;57398;52.032;4.376;2023-01-01T17:17:07;11.15;;;2.72;;
70052;SDS011;57398;52.032;4.376;2023-01-01T17:19:55;12.77;;;2.95;;
70052;SDS011;57398;52.032;4.376;2023-01-01T17:22:43;9.70;;;3.07;;
70052;SDS011;57398;52.032;4.376;2023-01-01T17:25:31;14.07;;;3.50;;
70052;SDS011;57398;52.032;4.376;2023-01-01T17:28:20;12.68;;;5.32;;
70052;SDS011;57398;52.032;4.376;2023-01-01T17:31:09;10.68;;;4.45;;